sensor_id;sensor_type;location;lat;lon;timestamp;temperature;humidity
45283;DHT22;31023;44.994;1.796;2023-01-28T00:01:28;2.00;94.90
45283;DHT22;31023;44.994;1.796;2023-01-28T00:03:54;2.10;95.00
45283;DHT22;31023;44.994;1.796;2023-01-28T00:06:19;2.10;95.10
45283;DHT22;31023;44.994;1.796;2023-01-28T00:08:45;2.00;95.20
45283;DHT22;31023;44.994;1.796;2023-01-28T00:11:12;2.10;95.10
45283;DHT22;31023;44.994;1.796;2023-01-28T00:13:37;2.10;95.10
45283;DHT22;31023;44.994;1.796;2023-01-28T00:16:04;2.10;95.50
45283;DHT22;31023;44.994;1.796;2023-01-28T00:18:30;2.10;95.10
45283;DHT22;31023;44.994;1.796;2023-01-28T00:20:57;2.20;94.90
45283;DHT22;31023;44.994;1.796;2023-01-28T00:23:23;2.20;94.70
45283;DHT22;31023;44.994;1.796;2023-01-28T00:25:49;2.20;94.90
45283;DHT22;31023;44.994;1.796;2023-01-28T00:28:14;2.10;95.00
45283;DHT22;31023;44.994;1.796;2023-01-28T00:30:40;2.10;95.10
45283;DHT22;31023;44.994;1.796;2023-01-28T00:33:05;2.10;94.90
45283;DHT22;31023;44.994;1.796;2023-01-28T00:35:31;2.10;95.00
45283;DHT22;31023;44.994;1.796;2023-01-28T00:37:56;2.10;94.70
45283;DHT22;31023;44.994;1.796;2023-01-28T00:40:22;2.20;95.00
45283;DHT22;31023;44.994;1.796;2023-01-28T00:42:48;2.10;94.80
45283;DHT22;31023;44.994;1.796;2023-01-28T00:45:13;2.20;94.90
45283;DHT22;31023;44.994;1.796;2023-01-28T00:47:39;2.10;94.60
45283;DHT22;31023;44.994;1.796;2023-01-28T00:50:04;2.00;94.70
45283;DHT22;31023;44.994;1.796;2023-01-28T00:52:30;2.10;94.60
45283;DHT22;31023;44.994;1.796;2023-01-28T00:54:56;1.90;94.80
45283;DHT22;31023;44.994;1.796;2023-01-28T00:57:21;1.90;94.90
45283;DHT22;31023;44.994;1.796;2023-01-28T00:59:47;1.90;94.90
45283;DHT22;31023;44.994;1.796;2023-01-28T01:02:12;1.90;94.80
45283;DHT22;31023;44.994;1.796;2023-01-28T01:04:39;1.90;95.20
45283;DHT22;31023;44.994;1.796;2023-01-28T01:07:04;2.00;95.20
45283;DHT22;31023;44.994;1.796;2023-01-28T01:09:30;2.00;95.30
45283;DHT22;31023;44.994;1.796;2023-01-28T01:11:56;1.90;95.10
45283;DHT22;31023;44.994;1.796;2023-01-28T01:14:22;1.90;95.00
45283;DHT22;31023;44.994;1.796;2023-01-28T01:16:47;1.90;95.10
45283;DHT22;31023;44.994;1.796;2023-01-28T01:19:13;1.90;95.20
45283;DHT22;31023;44.994;1.796;2023-01-28T01:21:38;1.90;95.30
45283;DHT22;31023;44.994;1.796;2023-01-28T01:24:04;1.90;95.30
45283;DHT22;31023;44.994;1.796;2023-01-28T01:26:30;1.90;95.00
45283;DHT22;31023;44.994;1.796;2023-01-28T01:28:55;2.00;95.30
45283;DHT22;31023;44.994;1.796;2023-01-28T01:31:21;2.00;95.20
45283;DHT22;31023;44.994;1.796;2023-01-28T01:33:47;2.10;95.20
45283;DHT22;31023;44.994;1.796;2023-01-28T01:36:14;2.00;95.60
45283;DHT22;31023;44.994;1.796;2023-01-28T01:38:40;2.10;95.40
45283;DHT22;31023;44.994;1.796;2023-01-28T01:41:07;2.00;95.10
45283;DHT22;31023;44.994;1.796;2023-01-28T01:46:21;2.00;95.60
45283;DHT22;31023;44.994;1.796;2023-01-28T01:48:47;1.90;95.50
45283;DHT22;31023;44.994;1.796;2023-01-28T01:51:14;1.90;95.80
45283;DHT22;31023;44.994;1.796;2023-01-28T01:53:44;2.00;95.80
45283;DHT22;31023;44.994;1.796;2023-01-28T01:56:12;1.90;95.50
45283;DHT22;31023;44.994;1.796;2023-01-28T01:58:39;1.90;95.50
45283;DHT22;31023;44.994;1.796;2023-01-28T02:01:07;1.80;95.90
45283;DHT22;31023;44.994;1.796;2023-01-28T02:03:37;1.80;95.50
45283;DHT22;31023;44.994;1.796;2023-01-28T02:06:05;1.80;95.80
45283;DHT22;31023;44.994;1.796;2023-01-28T02:08:31;1.60;95.60
45283;DHT22;31023;44.994;1.796;2023-01-28T02:10:59;1.60;96.00
45283;DHT22;31023;44.994;1.796;2023-01-28T02:13:26;1.60;95.80
45283;DHT22;31023;44.994;1.796;2023-01-28T02:15:53;1.60;95.70
45283;DHT22;31023;44.994;1.796;2023-01-28T02:18:19;1.60;95.80
45283;DHT22;31023;44.994;1.796;2023-01-28T02:20:51;1.50;96.10
45283;DHT22;31023;44.994;1.796;2023-01-28T02:28:39;1.40;96.00
45283;DHT22;31023;44.994;1.796;2023-01-28T02:33:36;1.30;96.50
45283;DHT22;31023;44.994;1.796;2023-01-28T02:36:08;1.30;96.40
45283;DHT22;31023;44.994;1.796;2023-01-28T02:38:38;1.30;96.40
45283;DHT22;31023;44.994;1.796;2023-01-28T02:41:07;1.20;96.80
45283;DHT22;31023;44.994;1.796;2023-01-28T02:43:39;1.20;96.70
45283;DHT22;31023;44.994;1.796;2023-01-28T02:46:11;1.20;96.80
45283;DHT22;31023;44.994;1.796;2023-01-28T02:48:56;1.10;97.20
45283;DHT22;31023;44.994;1.796;2023-01-28T02:51:27;1.00;97.20
45283;DHT22;31023;44.994;1.796;2023-01-28T02:53:59;1.00;97.40
45283;DHT22;31023;44.994;1.796;2023-01-28T02:56:31;0.90;97.70
45283;DHT22;31023;44.994;1.796;2023-01-28T02:59:02;1.00;97.60
45283;DHT22;31023;44.994;1.796;2023-01-28T03:01:51;1.00;97.70
45283;DHT22;31023;44.994;1.796;2023-01-28T03:04:24;0.90;97.80
45283;DHT22;31023;44.994;1.796;2023-01-28T03:06:52;1.00;97.80
45283;DHT22;31023;44.994;1.796;2023-01-28T03:09:19;1.10;97.70
45283;DHT22;31023;44.994;1.796;2023-01-28T03:14:32;1.30;97.40
45283;DHT22;31023;44.994;1.796;2023-01-28T03:17:23;1.40;97.10
45283;DHT22;31023;44.994;1.796;2023-01-28T03:20:09;1.50;97.00
45283;DHT22;31023;44.994;1.796;2023-01-28T03:22:53;1.60;97.10
45283;DHT22;31023;44.994;1.796;2023-01-28T03:25:39;1.60;96.70
45283;DHT22;31023;44.994;1.796;2023-01-28T03:28:25;1.70;96.70
45283;DHT22;31023;44.994;1.796;2023-01-28T03:31:13;1.60;96.60
45283;DHT22;31023;44.994;1.796;2023-01-28T03:33:58;1.70;96.30
45283;DHT22;31023;44.994;1.796;2023-01-28T03:36:43;1.60;96.40
45283;DHT22;31023;44.994;1.796;2023-01-28T03:39:18;1.50;96.60
45283;DHT22;31023;44.994;1.796;2023-01-28T03:41:55;1.60;96.10
45283;DHT22;31023;44.994;1.796;2023-01-28T03:44:22;1.60;96.00
45283;DHT22;31023;44.994;1.796;2023-01-28T03:47:06;1.60;96.00
45283;DHT22;31023;44.994;1.796;2023-01-28T03:49:33;1.60;96.00
45283;DHT22;31023;44.994;1.796;2023-01-28T03:51:59;1.60;95.70
45283;DHT22;31023;44.994;1.796;2023-01-28T03:54:24;1.70;95.70
45283;DHT22;31023;44.994;1.796;2023-01-28T03:56:50;1.70;95.50
45283;DHT22;31023;44.994;1.796;2023-01-28T03:59:15;1.70;95.50
45283;DHT22;31023;44.994;1.796;2023-01-28T04:01:41;1.70;95.00
45283;DHT22;31023;44.994;1.796;2023-01-28T04:04:06;1.70;95.20
45283;DHT22;31023;44.994;1.796;2023-01-28T04:06:32;1.70;95.20
45283;DHT22;31023;44.994;1.796;2023-01-28T04:08:58;1.70;95.40
45283;DHT22;31023;44.994;1.796;2023-01-28T04:11:24;1.70;95.50
45283;DHT22;31023;44.994;1.796;2023-01-28T04:13:50;1.80;94.90
45283;DHT22;31023;44.994;1.796;2023-01-28T04:16:16;1.80;95.10
45283;DHT22;31023;44.994;1.796;2023-01-28T04:18:43;1.80;95.20
45283;DHT22;31023;44.994;1.796;2023-01-28T04:21:09;1.80;95.20
45283;DHT22;31023;44.994;1.796;2023-01-28T04:23:35;1.70;95.40
45283;DHT22;31023;44.994;1.796;2023-01-28T04:26:00;1.80;95.00
45283;DHT22;31023;44.994;1.796;2023-01-28T04:28:26;1.80;94.60
45283;DHT22;31023;44.994;1.796;2023-01-28T04:30:51;1.70;95.00
45283;DHT22;31023;44.994;1.796;2023-01-28T04:33:17;1.70;95.00
45283;DHT22;31023;44.994;1.796;2023-01-28T04:35:42;1.70;94.40
45283;DHT22;31023;44.994;1.796;2023-01-28T04:38:08;1.70;94.30
45283;DHT22;31023;44.994;1.796;2023-01-28T04:40:34;1.70;94.70
45283;DHT22;31023;44.994;1.796;2023-01-28T04:42:59;1.70;94.20
45283;DHT22;31023;44.994;1.796;2023-01-28T04:45:25;1.70;94.40
45283;DHT22;31023;44.994;1.796;2023-01-28T04:47:50;1.70;94.50
45283;DHT22;31023;44.994;1.796;2023-01-28T04:50:16;1.70;94.50
45283;DHT22;31023;44.994;1.796;2023-01-28T04:52:42;1.70;94.80
45283;DHT22;31023;44.994;1.796;2023-01-28T04:55:08;1.80;94.90
45283;DHT22;31023;44.994;1.796;2023-01-28T04:57:33;1.70;94.60
45283;DHT22;31023;44.994;1.796;2023-01-28T04:59:59;1.70;94.20
45283;DHT22;31023;44.994;1.796;2023-01-28T05:02:24;1.70;94.30
45283;DHT22;31023;44.994;1.796;2023-01-28T05:04:50;1.60;94.40
45283;DHT22;31023;44.994;1.796;2023-01-28T05:07:16;1.60;94.60
45283;DHT22;31023;44.994;1.796;2023-01-28T05:09:41;1.60;94.60
45283;DHT22;31023;44.994;1.796;2023-01-28T05:12:07;1.60;94.60
45283;DHT22;31023;44.994;1.796;2023-01-28T05:14:32;1.60;94.40
45283;DHT22;31023;44.994;1.796;2023-01-28T05:16:58;1.60;94.60
45283;DHT22;31023;44.994;1.796;2023-01-28T05:19:23;1.60;94.10
45283;DHT22;31023;44.994;1.796;2023-01-28T05:21:49;1.60;93.90
45283;DHT22;31023;44.994;1.796;2023-01-28T05:24:15;1.60;94.10
45283;DHT22;31023;44.994;1.796;2023-01-28T05:26:40;1.60;94.40
45283;DHT22;31023;44.994;1.796;2023-01-28T05:29:06;1.70;94.20
45283;DHT22;31023;44.994;1.796;2023-01-28T05:31:32;1.70;94.00
45283;DHT22;31023;44.994;1.796;2023-01-28T05:33:57;1.70;93.70
45283;DHT22;31023;44.994;1.796;2023-01-28T05:36:23;1.70;94.00
45283;DHT22;31023;44.994;1.796;2023-01-28T05:38:48;1.70;94.00
45283;DHT22;31023;44.994;1.796;2023-01-28T05:41:14;1.70;94.10
45283;DHT22;31023;44.994;1.796;2023-01-28T05:43:40;1.70;94.10
45283;DHT22;31023;44.994;1.796;2023-01-28T05:46:05;1.70;94.20
45283;DHT22;31023;44.994;1.796;2023-01-28T05:48:31;1.80;94.50
45283;DHT22;31023;44.994;1.796;2023-01-28T05:50:56;1.80;94.30
45283;DHT22;31023;44.994;1.796;2023-01-28T05:53:22;1.80;94.50
45283;DHT22;31023;44.994;1.796;2023-01-28T05:55:48;1.80;94.50
45283;DHT22;31023;44.994;1.796;2023-01-28T05:58:14;1.80;94.50
45283;DHT22;31023;44.994;1.796;2023-01-28T06:00:40;1.80;94.50
45283;DHT22;31023;44.994;1.796;2023-01-28T06:03:05;1.80;94.60
45283;DHT22;31023;44.994;1.796;2023-01-28T06:05:31;1.80;94.60
45283;DHT22;31023;44.994;1.796;2023-01-28T06:07:57;1.90;95.20
45283;DHT22;31023;44.994;1.796;2023-01-28T06:10:22;1.90;94.50
45283;DHT22;31023;44.994;1.796;2023-01-28T06:12:48;1.90;94.40
45283;DHT22;31023;44.994;1.796;2023-01-28T06:15:13;1.80;94.50
45283;DHT22;31023;44.994;1.796;2023-01-28T06:17:39;1.80;94.30
45283;DHT22;31023;44.994;1.796;2023-01-28T06:20:04;1.80;94.40
45283;DHT22;31023;44.994;1.796;2023-01-28T06:22:30;1.80;94.30
45283;DHT22;31023;44.994;1.796;2023-01-28T06:24:56;1.70;93.50
45283;DHT22;31023;44.994;1.796;2023-01-28T06:27:21;1.70;93.90
45283;DHT22;31023;44.994;1.796;2023-01-28T06:29:47;1.70;94.30
45283;DHT22;31023;44.994;1.796;2023-01-28T06:32:12;1.60;93.70
45283;DHT22;31023;44.994;1.796;2023-01-28T06:34:38;1.50;93.90
45283;DHT22;31023;44.994;1.796;2023-01-28T06:37:03;1.50;93.80
45283;DHT22;31023;44.994;1.796;2023-01-28T06:39:29;1.60;93.80
45283;DHT22;31023;44.994;1.796;2023-01-28T06:41:58;1.60;93.30
45283;DHT22;31023;44.994;1.796;2023-01-28T06:44:24;1.60;93.50
45283;DHT22;31023;44.994;1.796;2023-01-28T06:46:50;1.60;93.10
45283;DHT22;31023;44.994;1.796;2023-01-28T06:49:15;1.60;92.90
45283;DHT22;31023;44.994;1.796;2023-01-28T06:51:41;1.70;93.00
45283;DHT22;31023;44.994;1.796;2023-01-28T06:54:06;1.60;93.10
45283;DHT22;31023;44.994;1.796;2023-01-28T06:56:32;1.50;93.00
45283;DHT22;31023;44.994;1.796;2023-01-28T06:58:57;1.40;92.90
45283;DHT22;31023;44.994;1.796;2023-01-28T07:01:23;1.40;93.20
45283;DHT22;31023;44.994;1.796;2023-01-28T07:03:49;1.40;93.00
45283;DHT22;31023;44.994;1.796;2023-01-28T07:06:14;1.40;93.00
45283;DHT22;31023;44.994;1.796;2023-01-28T07:08:40;1.40;92.90
45283;DHT22;31023;44.994;1.796;2023-01-28T07:11:06;1.40;93.10
45283;DHT22;31023;44.994;1.796;2023-01-28T07:13:31;1.30;93.10
45283;DHT22;31023;44.994;1.796;2023-01-28T07:15:57;1.30;93.40
45283;DHT22;31023;44.994;1.796;2023-01-28T07:18:23;1.30;93.10
45283;DHT22;31023;44.994;1.796;2023-01-28T07:20:48;1.30;93.10
45283;DHT22;31023;44.994;1.796;2023-01-28T07:23:14;1.30;93.40
45283;DHT22;31023;44.994;1.796;2023-01-28T07:25:39;1.30;92.90
45283;DHT22;31023;44.994;1.796;2023-01-28T07:28:05;1.30;93.10
45283;DHT22;31023;44.994;1.796;2023-01-28T07:30:31;1.20;92.90
45283;DHT22;31023;44.994;1.796;2023-01-28T07:32:57;1.30;92.70
45283;DHT22;31023;44.994;1.796;2023-01-28T07:35:23;1.30;92.70
45283;DHT22;31023;44.994;1.796;2023-01-28T07:37:52;1.20;93.10
45283;DHT22;31023;44.994;1.796;2023-01-28T07:40:18;1.30;92.80
45283;DHT22;31023;44.994;1.796;2023-01-28T07:42:43;1.20;92.90
45283;DHT22;31023;44.994;1.796;2023-01-28T07:45:09;1.20;93.10
45283;DHT22;31023;44.994;1.796;2023-01-28T07:47:35;1.30;93.30
45283;DHT22;31023;44.994;1.796;2023-01-28T07:50:01;1.30;93.20
45283;DHT22;31023;44.994;1.796;2023-01-28T07:52:26;1.30;93.10
45283;DHT22;31023;44.994;1.796;2023-01-28T07:54:52;1.20;93.20
45283;DHT22;31023;44.994;1.796;2023-01-28T07:57:17;1.30;93.40
45283;DHT22;31023;44.994;1.796;2023-01-28T07:59:48;1.30;92.80
45283;DHT22;31023;44.994;1.796;2023-01-28T08:02:14;1.30;93.10
45283;DHT22;31023;44.994;1.796;2023-01-28T08:04:39;1.40;93.20
45283;DHT22;31023;44.994;1.796;2023-01-28T08:07:05;1.40;93.20
45283;DHT22;31023;44.994;1.796;2023-01-28T08:09:31;1.40;93.00
45283;DHT22;31023;44.994;1.796;2023-01-28T08:11:58;1.40;92.70
45283;DHT22;31023;44.994;1.796;2023-01-28T08:14:26;1.50;92.70
45283;DHT22;31023;44.994;1.796;2023-01-28T08:16:51;1.50;93.00
45283;DHT22;31023;44.994;1.796;2023-01-28T08:19:17;1.60;93.10
45283;DHT22;31023;44.994;1.796;2023-01-28T08:21:43;1.70;92.80
45283;DHT22;31023;44.994;1.796;2023-01-28T08:24:08;1.70;93.00
45283;DHT22;31023;44.994;1.796;2023-01-28T08:26:34;1.80;92.60
45283;DHT22;31023;44.994;1.796;2023-01-28T08:28:59;1.60;92.50
45283;DHT22;31023;44.994;1.796;2023-01-28T08:31:26;1.70;92.80
45283;DHT22;31023;44.994;1.796;2023-01-28T08:33:51;1.70;92.40
45283;DHT22;31023;44.994;1.796;2023-01-28T08:36:17;1.70;92.40
45283;DHT22;31023;44.994;1.796;2023-01-28T08:38:43;1.90;92.40
45283;DHT22;31023;44.994;1.796;2023-01-28T08:41:08;1.70;92.30
45283;DHT22;31023;44.994;1.796;2023-01-28T08:43:34;1.70;92.40
45283;DHT22;31023;44.994;1.796;2023-01-28T08:45:59;1.70;92.60
45283;DHT22;31023;44.994;1.796;2023-01-28T08:48:25;1.90;92.30
45283;DHT22;31023;44.994;1.796;2023-01-28T08:50:51;1.70;91.90
45283;DHT22;31023;44.994;1.796;2023-01-28T08:53:17;1.80;92.10
45283;DHT22;31023;44.994;1.796;2023-01-28T08:55:43;1.90;92.60
45283;DHT22;31023;44.994;1.796;2023-01-28T08:58:10;1.80;92.70
45283;DHT22;31023;44.994;1.796;2023-01-28T09:00:36;1.90;92.30
45283;DHT22;31023;44.994;1.796;2023-01-28T09:03:01;1.90;92.40
45283;DHT22;31023;44.994;1.796;2023-01-28T09:05:27;1.80;92.20
45283;DHT22;31023;44.994;1.796;2023-01-28T09:07:54;1.80;92.00
45283;DHT22;31023;44.994;1.796;2023-01-28T09:10:20;1.80;91.90
45283;DHT22;31023;44.994;1.796;2023-01-28T09:12:46;1.90;92.40
45283;DHT22;31023;44.994;1.796;2023-01-28T09:15:12;1.90;92.20
45283;DHT22;31023;44.994;1.796;2023-01-28T09:17:37;1.90;92.30
45283;DHT22;31023;44.994;1.796;2023-01-28T09:20:04;1.90;92.20
45283;DHT22;31023;44.994;1.796;2023-01-28T09:22:29;1.90;92.30
45283;DHT22;31023;44.994;1.796;2023-01-28T09:24:55;2.00;92.40
45283;DHT22;31023;44.994;1.796;2023-01-28T09:27:20;2.10;92.40
45283;DHT22;31023;44.994;1.796;2023-01-28T09:29:46;2.10;92.60
45283;DHT22;31023;44.994;1.796;2023-01-28T09:32:12;2.10;92.20
45283;DHT22;31023;44.994;1.796;2023-01-28T09:34:37;2.10;92.20
45283;DHT22;31023;44.994;1.796;2023-01-28T09:37:03;2.10;92.20
45283;DHT22;31023;44.994;1.796;2023-01-28T09:39:29;2.10;92.30
45283;DHT22;31023;44.994;1.796;2023-01-28T09:46:59;2.10;92.50
45283;DHT22;31023;44.994;1.796;2023-01-28T09:49:32;2.20;92.50
45283;DHT22;31023;44.994;1.796;2023-01-28T09:51:59;2.30;92.60
45283;DHT22;31023;44.994;1.796;2023-01-28T09:56:50;2.50;92.10
45283;DHT22;31023;44.994;1.796;2023-01-28T09:59:19;2.40;92.50
45283;DHT22;31023;44.994;1.796;2023-01-28T10:09:24;2.40;92.20
45283;DHT22;31023;44.994;1.796;2023-01-28T10:17:26;2.40;92.60
45283;DHT22;31023;44.994;1.796;2023-01-28T10:19:46;2.40;91.90
45283;DHT22;31023;44.994;1.796;2023-01-28T10:22:15;2.40;92.10
45283;DHT22;31023;44.994;1.796;2023-01-28T10:24:47;2.50;92.60
45283;DHT22;31023;44.994;1.796;2023-01-28T10:27:16;2.50;92.50
45283;DHT22;31023;44.994;1.796;2023-01-28T10:29:43;2.50;92.30
45283;DHT22;31023;44.994;1.796;2023-01-28T10:34:36;2.60;92.20
45283;DHT22;31023;44.994;1.796;2023-01-28T10:37:01;2.60;92.20
45283;DHT22;31023;44.994;1.796;2023-01-28T10:39:27;2.50;92.40
45283;DHT22;31023;44.994;1.796;2023-01-28T10:41:53;2.70;92.40
45283;DHT22;31023;44.994;1.796;2023-01-28T10:44:37;2.70;92.40
45283;DHT22;31023;44.994;1.796;2023-01-28T10:47:14;2.60;92.50
45283;DHT22;31023;44.994;1.796;2023-01-28T10:49:42;2.70;92.50
45283;DHT22;31023;44.994;1.796;2023-01-28T10:52:10;2.60;92.60
45283;DHT22;31023;44.994;1.796;2023-01-28T10:54:36;2.60;92.50
45283;DHT22;31023;44.994;1.796;2023-01-28T10:57:07;2.70;92.40
45283;DHT22;31023;44.994;1.796;2023-01-28T10:59:34;2.70;92.20
45283;DHT22;31023;44.994;1.796;2023-01-28T11:02:03;2.80;92.30
45283;DHT22;31023;44.994;1.796;2023-01-28T11:07:04;2.90;92.20
45283;DHT22;31023;44.994;1.796;2023-01-28T11:09:34;2.70;92.00
45283;DHT22;31023;44.994;1.796;2023-01-28T11:12:10;2.90;92.30
45283;DHT22;31023;44.994;1.796;2023-01-28T11:14:36;2.80;92.00
45283;DHT22;31023;44.994;1.796;2023-01-28T11:17:01;2.90;92.40
45283;DHT22;31023;44.994;1.796;2023-01-28T11:19:32;2.90;91.90
45283;DHT22;31023;44.994;1.796;2023-01-28T11:21:58;2.90;92.20
45283;DHT22;31023;44.994;1.796;2023-01-28T11:24:25;3.00;91.90
45283;DHT22;31023;44.994;1.796;2023-01-28T11:26:52;2.90;92.30
45283;DHT22;31023;44.994;1.796;2023-01-28T11:29:31;3.00;92.00
45283;DHT22;31023;44.994;1.796;2023-01-28T11:31:57;3.00;92.50
45283;DHT22;31023;44.994;1.796;2023-01-28T11:34:27;3.00;93.20
45283;DHT22;31023;44.994;1.796;2023-01-28T11:36:54;3.00;92.50
45283;DHT22;31023;44.994;1.796;2023-01-28T11:39:26;3.10;92.20
45283;DHT22;31023;44.994;1.796;2023-01-28T11:41:54;3.10;92.10
45283;DHT22;31023;44.994;1.796;2023-01-28T11:44:27;3.10;92.20
45283;DHT22;31023;44.994;1.796;2023-01-28T11:52:24;3.30;92.00
45283;DHT22;31023;44.994;1.796;2023-01-28T12:00:17;3.40;92.00
45283;DHT22;31023;44.994;1.796;2023-01-28T12:05:15;3.50;91.80
45283;DHT22;31023;44.994;1.796;2023-01-28T12:07:53;3.60;92.10
45283;DHT22;31023;44.994;1.796;2023-01-28T12:10:30;3.50;91.10
45283;DHT22;31023;44.994;1.796;2023-01-28T12:18:34;4.00;90.90
45283;DHT22;31023;44.994;1.796;2023-01-28T12:21:06;4.00;90.60
45283;DHT22;31023;44.994;1.796;2023-01-28T12:23:42;3.90;90.80
45283;DHT22;31023;44.994;1.796;2023-01-28T12:26:14;3.70;90.50
45283;DHT22;31023;44.994;1.796;2023-01-28T12:36:31;3.60;90.90
45283;DHT22;31023;44.994;1.796;2023-01-28T12:41:40;4.00;91.70
45283;DHT22;31023;44.994;1.796;2023-01-28T12:44:13;3.90;91.10
45283;DHT22;31023;44.994;1.796;2023-01-28T12:46:49;4.00;91.00
45283;DHT22;31023;44.994;1.796;2023-01-28T12:54:18;4.10;90.30
45283;DHT22;31023;44.994;1.796;2023-01-28T12:56:50;4.10;90.30
45283;DHT22;31023;44.994;1.796;2023-01-28T13:04:53;4.00;90.60
45283;DHT22;31023;44.994;1.796;2023-01-28T13:10:00;4.10;90.70
45283;DHT22;31023;44.994;1.796;2023-01-28T13:12:29;4.20;90.60
45283;DHT22;31023;44.994;1.796;2023-01-28T13:14:55;4.00;90.20
45283;DHT22;31023;44.994;1.796;2023-01-28T13:17:25;4.00;90.30
45283;DHT22;31023;44.994;1.796;2023-01-28T13:19:51;4.00;90.40
45283;DHT22;31023;44.994;1.796;2023-01-28T13:22:33;3.90;90.30
45283;DHT22;31023;44.994;1.796;2023-01-28T13:27:59;4.10;89.90
45283;DHT22;31023;44.994;1.796;2023-01-28T13:33:04;4.20;89.60
45283;DHT22;31023;44.994;1.796;2023-01-28T13:35:31;4.30;90.40
45283;DHT22;31023;44.994;1.796;2023-01-28T13:37:57;4.50;89.90
45283;DHT22;31023;44.994;1.796;2023-01-28T13:40:24;4.50;89.40
45283;DHT22;31023;44.994;1.796;2023-01-28T13:42:59;4.40;88.60
45283;DHT22;31023;44.994;1.796;2023-01-28T13:45:26;4.50;90.00
45283;DHT22;31023;44.994;1.796;2023-01-28T13:47:54;4.40;88.70
45283;DHT22;31023;44.994;1.796;2023-01-28T13:50:22;4.30;88.50
45283;DHT22;31023;44.994;1.796;2023-01-28T13:52:49;4.40;89.30
45283;DHT22;31023;44.994;1.796;2023-01-28T13:55:20;4.30;89.10
45283;DHT22;31023;44.994;1.796;2023-01-28T14:18:37;4.10;89.10
45283;DHT22;31023;44.994;1.796;2023-01-28T14:21:08;4.10;88.60
45283;DHT22;31023;44.994;1.796;2023-01-28T14:23:35;4.10;88.30
45283;DHT22;31023;44.994;1.796;2023-01-28T14:26:22;4.10;89.50
45283;DHT22;31023;44.994;1.796;2023-01-28T14:28:54;4.00;89.40
45283;DHT22;31023;44.994;1.796;2023-01-28T14:33:49;3.90;88.30
45283;DHT22;31023;44.994;1.796;2023-01-28T14:36:15;3.90;88.90
45283;DHT22;31023;44.994;1.796;2023-01-28T14:38:42;3.90;88.50
45283;DHT22;31023;44.994;1.796;2023-01-28T14:41:08;4.00;89.50
45283;DHT22;31023;44.994;1.796;2023-01-28T14:43:34;4.00;89.70
45283;DHT22;31023;44.994;1.796;2023-01-28T14:46:10;3.90;89.30
45283;DHT22;31023;44.994;1.796;2023-01-28T14:58:45;3.90;89.70
45283;DHT22;31023;44.994;1.796;2023-01-28T15:01:23;3.80;87.80
45283;DHT22;31023;44.994;1.796;2023-01-28T15:03:49;3.70;88.10
45283;DHT22;31023;44.994;1.796;2023-01-28T15:06:16;3.70;88.10
45283;DHT22;31023;44.994;1.796;2023-01-28T15:08:42;3.60;88.80
45283;DHT22;31023;44.994;1.796;2023-01-28T15:11:09;3.60;88.70
45283;DHT22;31023;44.994;1.796;2023-01-28T15:13:36;3.60;89.50
45283;DHT22;31023;44.994;1.796;2023-01-28T15:16:03;3.60;89.60
45283;DHT22;31023;44.994;1.796;2023-01-28T15:18:32;3.60;89.70
45283;DHT22;31023;44.994;1.796;2023-01-28T15:20:58;3.70;89.60
45283;DHT22;31023;44.994;1.796;2023-01-28T15:25:53;3.60;89.60
45283;DHT22;31023;44.994;1.796;2023-01-28T15:28:23;3.60;90.40
45283;DHT22;31023;44.994;1.796;2023-01-28T15:30:49;3.60;90.00
45283;DHT22;31023;44.994;1.796;2023-01-28T15:33:15;3.60;90.00
45283;DHT22;31023;44.994;1.796;2023-01-28T15:35:47;3.60;90.20
45283;DHT22;31023;44.994;1.796;2023-01-28T15:38:13;3.50;90.10
45283;DHT22;31023;44.994;1.796;2023-01-28T15:40:40;3.50;90.20
45283;DHT22;31023;44.994;1.796;2023-01-28T15:43:10;3.50;90.30
45283;DHT22;31023;44.994;1.796;2023-01-28T15:45:43;3.40;90.30
45283;DHT22;31023;44.994;1.796;2023-01-28T15:48:09;3.30;90.30
45283;DHT22;31023;44.994;1.796;2023-01-28T15:50:35;3.30;90.60
45283;DHT22;31023;44.994;1.796;2023-01-28T15:53:02;3.40;90.30
45283;DHT22;31023;44.994;1.796;2023-01-28T15:55:39;3.30;90.60
45283;DHT22;31023;44.994;1.796;2023-01-28T15:58:47;3.30;90.50
45283;DHT22;31023;44.994;1.796;2023-01-28T16:03:28;3.30;90.40
45283;DHT22;31023;44.994;1.796;2023-01-28T16:05:55;3.30;90.50
45283;DHT22;31023;44.994;1.796;2023-01-28T16:08:31;3.30;90.60
45283;DHT22;31023;44.994;1.796;2023-01-28T16:10:58;3.30;90.70
45283;DHT22;31023;44.994;1.796;2023-01-28T16:13:24;3.20;90.50
45283;DHT22;31023;44.994;1.796;2023-01-28T16:15:52;3.20;90.80
45283;DHT22;31023;44.994;1.796;2023-01-28T16:18:22;3.20;90.40
45283;DHT22;31023;44.994;1.796;2023-01-28T16:20:50;3.20;90.40
45283;DHT22;31023;44.994;1.796;2023-01-28T16:23:19;3.10;90.30
45283;DHT22;31023;44.994;1.796;2023-01-28T16:25:46;3.10;90.70
45283;DHT22;31023;44.994;1.796;2023-01-28T16:28:16;3.10;90.50
45283;DHT22;31023;44.994;1.796;2023-01-28T16:30:43;3.10;90.90
45283;DHT22;31023;44.994;1.796;2023-01-28T16:33:16;3.10;90.70
45283;DHT22;31023;44.994;1.796;2023-01-28T16:35:42;3.10;90.90
45283;DHT22;31023;44.994;1.796;2023-01-28T16:38:07;3.10;90.70
45283;DHT22;31023;44.994;1.796;2023-01-28T16:40:33;3.10;91.00
45283;DHT22;31023;44.994;1.796;2023-01-28T16:43:02;3.00;91.00
45283;DHT22;31023;44.994;1.796;2023-01-28T16:45:28;3.00;91.10
45283;DHT22;31023;44.994;1.796;2023-01-28T16:47:53;3.00;91.20
45283;DHT22;31023;44.994;1.796;2023-01-28T16:50:19;2.90;91.30
45283;DHT22;31023;44.994;1.796;2023-01-28T16:52:47;2.90;91.40
45283;DHT22;31023;44.994;1.796;2023-01-28T16:55:13;2.90;91.30
45283;DHT22;31023;44.994;1.796;2023-01-28T16:57:40;2.90;91.60
45283;DHT22;31023;44.994;1.796;2023-01-28T17:00:06;2.90;91.70
45283;DHT22;31023;44.994;1.796;2023-01-28T17:02:31;2.90;91.80
45283;DHT22;31023;44.994;1.796;2023-01-28T17:04:57;2.90;91.60
45283;DHT22;31023;44.994;1.796;2023-01-28T17:07:22;2.80;91.50
45283;DHT22;31023;44.994;1.796;2023-01-28T17:09:48;2.90;91.80
45283;DHT22;31023;44.994;1.796;2023-01-28T17:12:14;2.80;91.80
45283;DHT22;31023;44.994;1.796;2023-01-28T17:14:39;2.80;92.00
45283;DHT22;31023;44.994;1.796;2023-01-28T17:17:05;2.80;91.90
45283;DHT22;31023;44.994;1.796;2023-01-28T17:19:31;2.80;91.90
45283;DHT22;31023;44.994;1.796;2023-01-28T17:21:56;2.80;91.90
45283;DHT22;31023;44.994;1.796;2023-01-28T17:24:22;2.80;92.00
45283;DHT22;31023;44.994;1.796;2023-01-28T17:26:51;2.80;91.80
45283;DHT22;31023;44.994;1.796;2023-01-28T17:29:17;2.80;91.70
45283;DHT22;31023;44.994;1.796;2023-01-28T17:31:43;2.80;91.90
45283;DHT22;31023;44.994;1.796;2023-01-28T17:34:08;2.80;92.10
45283;DHT22;31023;44.994;1.796;2023-01-28T17:36:35;2.80;92.10
45283;DHT22;31023;44.994;1.796;2023-01-28T17:39:01;2.70;92.10
45283;DHT22;31023;44.994;1.796;2023-01-28T17:41:27;2.80;92.10
45283;DHT22;31023;44.994;1.796;2023-01-28T17:43:53;2.70;92.60
45283;DHT22;31023;44.994;1.796;2023-01-28T17:46:19;2.80;92.40
45283;DHT22;31023;44.994;1.796;2023-01-28T17:48:45;2.80;91.90
45283;DHT22;31023;44.994;1.796;2023-01-28T17:51:11;2.80;92.00
45283;DHT22;31023;44.994;1.796;2023-01-28T17:53:37;2.80;92.40